createdAt,value
2022-10-22T11:42:22.502Z,18.30
2022-10-22T11:45:03.946Z,19.00
2022-10-22T11:47:43.206Z,19.40
2022-10-22T11:50:22.817Z,18.70
2022-10-22T11:53:03.990Z,18.90
2022-10-22T11:55:48.438Z,19.00
2022-10-22T11:58:50.817Z,18.30
2022-10-22T12:01:43.490Z,19.60
2022-10-22T12:04:40.804Z,18.10
2022-10-22T12:07:34.974Z,19.00
2022-10-22T12:10:20.074Z,18.40
2022-10-22T12:12:59.208Z,18.10
2022-10-22T12:15:31.872Z,18.70
2022-10-22T12:18:07.198Z,16.90
2022-10-22T12:20:38.740Z,16.80
2022-10-22T12:23:12.369Z,16.70
2022-10-22T12:25:43.812Z,15.90
2022-10-22T12:28:17.189Z,15.60
2022-10-22T12:30:50.098Z,14.50
2022-10-22T12:33:23.811Z,15.50
2022-10-22T12:38:30.063Z,14.90
2022-10-22T12:41:01.605Z,15.00
2022-10-22T12:43:33.621Z,14.50
2022-10-22T12:46:05.446Z,14.10
2022-10-22T12:48:41.796Z,13.60
2022-10-22T12:51:19.501Z,13.40
2022-10-22T12:53:54.515Z,14.50
2022-10-22T12:56:28.728Z,15.10
2022-10-22T12:59:04.246Z,16.80
2022-10-22T13:01:40.097Z,17.60
2022-10-22T13:04:32.431Z,16.70
2022-10-22T13:07:22.267Z,16.60
2022-10-22T13:10:01.650Z,16.60
2022-10-22T13:12:37.990Z,16.30
2022-10-22T13:15:34.695Z,16.00
2022-10-22T13:18:16.746Z,15.10
2022-10-22T13:20:57.558Z,15.80
2022-10-22T13:23:31.047Z,14.00
2022-10-22T13:26:05.165Z,15.30
2022-10-22T13:28:36.609Z,14.40
2022-10-22T13:31:17.271Z,14.80
2022-10-22T13:33:53.048Z,15.00
2022-10-22T13:36:26.513Z,15.60
2022-10-22T13:38:58.122Z,14.90
2022-10-22T13:41:32.298Z,15.60
2022-10-22T13:44:03.935Z,14.90
2022-10-22T13:46:40.682Z,15.40
2022-10-22T13:49:17.696Z,15.00
2022-10-22T13:51:51.542Z,14.70
2022-10-22T13:56:56.463Z,14.10
2022-10-22T13:59:27.961Z,15.60
2022-10-22T14:02:06.034Z,15.10
2022-10-22T14:04:40.628Z,14.60
2022-10-22T14:07:16.929Z,14.00
2022-10-22T14:09:48.474Z,15.10
2022-10-22T14:12:19.873Z,14.90
2022-10-22T14:14:51.396Z,15.40
2022-10-22T14:17:23.377Z,14.30
2022-10-22T14:19:55.220Z,15.50
2022-10-22T14:22:30.624Z,14.50
2022-10-22T14:25:02.048Z,15.50
2022-10-22T14:27:33.525Z,14.70
2022-10-22T14:30:05.830Z,14.80
2022-10-22T14:32:39.023Z,15.20
2022-10-22T14:35:14.908Z,15.70
2022-10-22T14:37:46.329Z,15.80
2022-10-22T14:40:21.262Z,15.50
2022-10-22T14:42:52.677Z,16.00
2022-10-22T14:45:27.241Z,16.60
2022-10-22T14:47:58.689Z,16.30
2022-10-22T14:50:30.191Z,16.90
2022-10-22T14:53:01.670Z,17.00
2022-10-22T14:55:33.344Z,18.00
2022-10-22T14:58:05.054Z,18.40
2022-10-22T15:00:37.078Z,17.90
2022-10-22T15:03:08.958Z,17.80
2022-10-22T15:05:44.941Z,19.30
2022-10-22T15:08:17.815Z,18.20
2022-10-22T15:10:59.737Z,19.10
2022-10-22T15:13:31.907Z,18.40
2022-10-22T15:16:06.843Z,19.20
2022-10-22T15:18:38.750Z,20.10
2022-10-22T15:21:16.238Z,20.00
2022-10-22T15:23:47.911Z,20.20
2022-10-22T15:26:20.572Z,20.50
2022-10-22T15:28:51.980Z,22.00
2022-10-22T15:31:45.632Z,20.40
2022-10-22T15:34:23.453Z,21.40
2022-10-22T15:36:58.423Z,23.90
2022-10-22T15:39:31.495Z,23.80
2022-10-22T15:42:03.421Z,23.60
2022-10-22T15:44:35.031Z,22.60
2022-10-22T15:47:07.477Z,23.20
2022-10-22T15:49:40.046Z,24.00
2022-10-22T15:52:11.595Z,24.40
2022-10-22T15:54:43.920Z,25.50
2022-10-22T15:57:16.352Z,24.40
2022-10-22T15:59:50.100Z,25.30
2022-10-22T16:02:21.720Z,25.40
2022-10-22T16:04:53.273Z,24.80
2022-10-22T16:07:24.943Z,25.00
2022-10-22T16:10:01.762Z,25.10
2022-10-22T16:12:33.446Z,24.90
2022-10-22T16:15:05.638Z,24.70
2022-10-22T16:17:37.294Z,25.10
2022-10-22T16:20:10.656Z,25.30
2022-10-22T16:22:42.489Z,25.80
2022-10-22T16:25:14.418Z,24.70
2022-10-22T16:27:49.873Z,25.00
2022-10-22T16:30:21.500Z,24.90
2022-10-22T16:32:53.895Z,25.00
2022-10-22T16:35:25.526Z,25.80
2022-10-22T16:37:57.208Z,26.20
2022-10-22T16:40:29.489Z,26.90
2022-10-22T16:43:01.044Z,27.40
2022-10-22T16:45:32.700Z,29.30
2022-10-22T16:48:04.493Z,28.70
2022-10-22T16:50:36.014Z,28.80
2022-10-22T16:53:07.662Z,28.70
2022-10-22T16:55:40.348Z,28.40
2022-10-22T16:58:12.003Z,28.00
2022-10-22T17:00:43.687Z,28.10
2022-10-22T17:03:15.226Z,29.00
2022-10-22T17:05:48.481Z,33.80
2022-10-22T17:08:20.591Z,32.50
2022-10-22T17:10:52.239Z,34.00
2022-10-22T17:13:23.895Z,34.40
2022-10-22T17:16:01.831Z,35.50
2022-10-22T17:18:34.457Z,36.20
2022-10-22T17:21:06.966Z,36.80
2022-10-22T17:23:38.929Z,37.90
2022-10-22T17:26:15.244Z,37.10
2022-10-22T17:28:47.346Z,37.90
2022-10-22T17:31:22.499Z,37.80
2022-10-22T17:33:56.616Z,35.50
2022-10-22T17:36:35.665Z,36.00
2022-10-22T17:39:09.067Z,32.80
2022-10-22T17:41:40.584Z,34.30
2022-10-22T17:44:14.545Z,35.50
2022-10-22T17:46:47.193Z,35.60
2022-10-22T17:49:20.945Z,36.60
2022-10-22T17:54:23.042Z,33.50
2022-10-22T17:56:54.463Z,36.10
2022-10-22T17:59:25.957Z,35.40
2022-10-22T18:02:00.336Z,37.10
2022-10-22T18:04:33.987Z,37.80
2022-10-22T18:07:05.547Z,41.80
2022-10-22T18:09:37.145Z,43.70
2022-10-22T18:12:11.455Z,41.60
2022-10-22T18:14:43.034Z,38.80
2022-10-22T18:19:51.867Z,39.40
2022-10-22T18:22:23.403Z,40.50
2022-10-22T18:24:54.928Z,39.90
2022-10-22T18:27:26.354Z,41.50
2022-10-22T18:29:57.775Z,41.90
2022-10-22T18:32:29.191Z,40.90
2022-10-22T18:35:00.852Z,41.40
2022-10-22T18:37:36.284Z,40.80
2022-10-22T18:40:14.342Z,41.50
2022-10-22T18:42:46.405Z,42.40
2022-10-22T18:45:18.164Z,40.60
2022-10-22T18:47:49.650Z,40.90
2022-10-22T18:50:21.212Z,38.90
2022-10-22T18:52:52.827Z,36.40
2022-10-22T18:55:24.266Z,36.40
2022-10-22T18:57:55.652Z,35.90
2022-10-22T19:00:28.388Z,37.60
2022-10-22T19:02:59.859Z,36.20
2022-10-22T19:05:32.447Z,36.90
2022-10-22T19:08:04.834Z,38.20
2022-10-22T19:10:38.093Z,38.70
2022-10-22T19:13:09.580Z,40.70
2022-10-22T19:15:41.068Z,42.70
2022-10-22T19:18:15.103Z,43.80
2022-10-22T19:20:49.304Z,42.80
2022-10-22T19:23:20.958Z,43.50
2022-10-22T19:26:05.746Z,42.90
2022-10-22T19:28:38.400Z,43.30
2022-10-22T19:31:12.776Z,41.70
2022-10-22T19:33:44.202Z,40.30
2022-10-22T19:36:18.383Z,38.90
2022-10-22T19:38:51.401Z,36.70
2022-10-22T19:41:25.596Z,35.20
2022-10-22T19:43:58.721Z,33.80
2022-10-22T19:46:32.706Z,35.20
2022-10-22T19:49:04.710Z,35.20
2022-10-22T19:51:37.787Z,33.50
2022-10-22T19:54:18.370Z,34.20
2022-10-22T19:56:50.555Z,34.60
2022-10-22T19:59:26.222Z,33.80
2022-10-22T20:02:00.102Z,33.30
2022-10-22T20:04:32.412Z,32.20
2022-10-22T20:07:04.429Z,31.80
2022-10-22T20:09:36.248Z,33.20
2022-10-22T20:12:08.608Z,30.90
2022-10-22T20:14:40.747Z,32.20
2022-10-22T20:17:12.156Z,31.50
2022-10-22T20:19:43.744Z,32.90
2022-10-22T20:22:17.991Z,32.20
2022-10-22T20:24:50.732Z,32.30
2022-10-22T20:27:22.498Z,32.70
2022-10-22T20:29:53.997Z,32.70
2022-10-22T20:32:27.403Z,32.70
2022-10-22T20:34:58.811Z,32.80
2022-10-22T20:37:30.203Z,32.20
2022-10-22T20:40:01.803Z,32.40
2022-10-22T20:42:33.808Z,32.40
2022-10-22T20:45:05.849Z,31.20
2022-10-22T20:47:50.982Z,32.10
2022-10-22T20:50:27.638Z,31.30
2022-10-22T20:52:59.269Z,31.90
2022-10-22T20:55:30.763Z,32.00
2022-10-22T20:58:02.348Z,32.90
2022-10-22T21:00:36.127Z,32.80
2022-10-22T21:03:07.609Z,32.10
2022-10-22T21:05:39.106Z,33.20
2022-10-22T21:08:17.198Z,34.50
2022-10-22T21:10:49.554Z,33.60
2022-10-22T21:13:20.953Z,35.40
2022-10-22T21:15:52.368Z,34.00
2022-10-22T21:18:23.779Z,34.00
2022-10-22T21:20:55.233Z,35.00
2022-10-22T21:23:26.939Z,36.20
2022-10-22T21:25:59.423Z,37.30
2022-10-22T21:28:35.379Z,37.90
2022-10-22T21:31:10.873Z,37.10
2022-10-22T21:33:42.404Z,38.30
2022-10-22T21:36:13.960Z,36.50
2022-10-22T21:38:45.512Z,37.50
2022-10-22T21:41:18.555Z,38.80
2022-10-22T21:43:50.971Z,38.90
2022-10-22T21:46:24.462Z,38.60
2022-10-22T21:48:57.936Z,39.90
2022-10-22T21:51:29.857Z,39.70
2022-10-22T21:54:02.420Z,39.70
2022-10-22T21:56:35.616Z,38.30
2022-10-22T21:59:08.076Z,38.40
2022-10-22T22:01:39.554Z,36.50
2022-10-22T22:04:11.315Z,36.40
2022-10-22T22:06:42.730Z,34.80
2022-10-22T22:09:14.221Z,32.60
2022-10-22T22:11:45.741Z,32.10
2022-10-22T22:14:17.158Z,31.10
2022-10-22T22:16:48.572Z,31.50
2022-10-22T22:19:20.045Z,31.00
2022-10-22T22:21:53.716Z,30.40
2022-10-22T22:24:25.143Z,30.00
2022-10-22T22:26:56.708Z,29.10
2022-10-22T22:29:28.169Z,28.80
2022-10-22T22:31:59.761Z,29.50
2022-10-22T22:34:31.214Z,28.50
2022-10-22T22:37:02.697Z,28.50
2022-10-22T22:39:34.340Z,28.00
2022-10-22T22:42:07.101Z,28.80
2022-10-22T22:44:39.474Z,28.90
2022-10-22T22:47:10.908Z,29.50
2022-10-22T22:49:42.357Z,29.70
2022-10-22T22:52:13.868Z,29.80
2022-10-22T22:54:45.320Z,29.60
2022-10-22T22:57:19.075Z,30.10
2022-10-22T22:59:53.199Z,30.30
2022-10-22T23:02:24.676Z,30.70
2022-10-22T23:04:56.330Z,30.40
2022-10-22T23:07:27.853Z,29.70
2022-10-22T23:09:59.286Z,29.70
2022-10-22T23:12:30.722Z,29.20
2022-10-22T23:15:02.444Z,28.80
2022-10-22T23:17:34.020Z,28.40
2022-10-22T23:20:07.485Z,27.10
2022-10-22T23:22:39.045Z,27.30
2022-10-22T23:25:12.120Z,27.60
2022-10-22T23:27:43.937Z,27.70
2022-10-22T23:30:16.554Z,26.70
2022-10-22T23:32:47.948Z,26.30
2022-10-22T23:35:19.875Z,25.80
2022-10-22T23:37:51.281Z,26.70
2022-10-22T23:40:22.720Z,26.40
2022-10-22T23:42:54.179Z,25.50
2022-10-22T23:45:25.548Z,24.70
2022-10-22T23:47:57.163Z,24.80
2022-10-22T23:50:28.744Z,25.70
2022-10-22T23:53:00.168Z,23.70
2022-10-22T23:55:31.568Z,20.20
2022-10-22T23:58:02.956Z,20.30
